sensor_id;sensor_type;location;lat;lon;timestamp;pressure;altitude;pressure_sealevel;temperature;humidity
21129;BME280;10722;51.910;8.352;2023-10-09T00:00:54;101241.88;;;12.45;100.00
21129;BME280;10722;51.910;8.352;2023-10-09T00:03:47;101241.69;;;12.36;100.00
21129;BME280;10722;51.910;8.352;2023-10-09T00:06:32;101232.88;;;12.26;100.00
21129;BME280;10722;51.910;8.352;2023-10-09T00:09:17;101227.69;;;12.27;100.00
21129;BME280;10722;51.910;8.352;2023-10-09T00:12:03;101226.09;;;12.34;100.00
21129;BME280;10722;51.910;8.352;2023-10-09T00:14:49;101221.06;;;12.43;100.00
21129;BME280;10722;51.910;8.352;2023-10-09T00:17:34;101215.88;;;12.43;100.00
21129;BME280;10722;51.910;8.352;2023-10-09T00:20:19;101213.31;;;12.45;100.00
21129;BME280;10722;51.910;8.352;2023-10-09T00:23:05;101203.00;;;12.49;100.00
21129;BME280;10722;51.910;8.352;2023-10-09T00:25:49;101196.06;;;12.48;100.00
21129;BME280;10722;51.910;8.352;2023-10-09T00:28:36;101192.47;;;12.40;100.00
21129;BME280;10722;51.910;8.352;2023-10-09T00:31:21;101208.97;;;12.42;100.00
21129;BME280;10722;51.910;8.352;2023-10-09T00:34:06;101218.63;;;12.52;100.00
21129;BME280;10722;51.910;8.352;2023-10-09T00:36:51;101213.56;;;12.59;100.00
21129;BME280;10722;51.910;8.352;2023-10-09T00:39:36;101205.56;;;12.46;100.00
21129;BME280;10722;51.910;8.352;2023-10-09T00:42:23;101200.56;;;12.57;100.00
21129;BME280;10722;51.910;8.352;2023-10-09T00:45:08;101190.13;;;12.55;100.00
21129;BME280;10722;51.910;8.352;2023-10-09T00:47:54;101197.19;;;12.63;100.00
21129;BME280;10722;51.910;8.352;2023-10-09T00:50:39;101196.22;;;12.57;100.00
21129;BME280;10722;51.910;8.352;2023-10-09T00:53:25;101178.09;;;12.61;100.00
21129;BME280;10722;51.910;8.352;2023-10-09T00:56:10;101175.41;;;12.53;100.00
21129;BME280;10722;51.910;8.352;2023-10-09T00:58:58;101179.00;;;12.63;100.00
21129;BME280;10722;51.910;8.352;2023-10-09T01:01:43;101178.28;;;12.70;100.00
21129;BME280;10722;51.910;8.352;2023-10-09T01:04:28;101177.41;;;12.71;100.00
21129;BME280;10722;51.910;8.352;2023-10-09T01:07:14;101155.56;;;12.56;100.00
21129;BME280;10722;51.910;8.352;2023-10-09T01:09:59;101140.94;;;12.62;100.00
21129;BME280;10722;51.910;8.352;2023-10-09T01:12:44;101129.50;;;12.50;100.00
21129;BME280;10722;51.910;8.352;2023-10-09T01:15:29;101144.22;;;12.51;100.00
21129;BME280;10722;51.910;8.352;2023-10-09T01:18:14;101140.72;;;12.48;100.00
21129;BME280;10722;51.910;8.352;2023-10-09T01:21:00;101152.88;;;12.50;100.00
21129;BME280;10722;51.910;8.352;2023-10-09T01:23:45;101155.44;;;12.49;100.00
21129;BME280;10722;51.910;8.352;2023-10-09T01:26:41;101167.59;;;12.51;100.00
21129;BME280;10722;51.910;8.352;2023-10-09T01:29:27;101164.03;;;12.46;100.00
21129;BME280;10722;51.910;8.352;2023-10-09T01:32:12;101170.75;;;12.33;100.00
21129;BME280;10722;51.910;8.352;2023-10-09T01:34:57;101173.72;;;12.56;100.00
21129;BME280;10722;51.910;8.352;2023-10-09T01:37:43;101171.19;;;12.60;100.00
21129;BME280;10722;51.910;8.352;2023-10-09T01:40:28;101171.41;;;12.75;100.00
21129;BME280;10722;51.910;8.352;2023-10-09T01:43:13;101181.84;;;12.78;100.00
21129;BME280;10722;51.910;8.352;2023-10-09T01:45:59;101167.38;;;12.94;100.00
21129;BME280;10722;51.910;8.352;2023-10-09T01:48:43;101157.84;;;12.94;100.00
21129;BME280;10722;51.910;8.352;2023-10-09T01:51:28;101150.75;;;12.83;100.00
21129;BME280;10722;51.910;8.352;2023-10-09T01:54:16;101150.75;;;12.83;100.00
21129;BME280;10722;51.910;8.352;2023-10-09T01:57:02;101138.56;;;12.75;100.00
21129;BME280;10722;51.910;8.352;2023-10-09T01:59:48;101146.94;;;12.59;100.00
21129;BME280;10722;51.910;8.352;2023-10-09T02:02:34;101140.81;;;12.55;100.00
21129;BME280;10722;51.910;8.352;2023-10-09T02:05:19;101144.38;;;12.61;100.00
21129;BME280;10722;51.910;8.352;2023-10-09T02:08:05;101145.41;;;12.72;100.00
21129;BME280;10722;51.910;8.352;2023-10-09T02:10:50;101158.44;;;12.75;100.00
21129;BME280;10722;51.910;8.352;2023-10-09T02:13:35;101172.44;;;12.85;100.00
21129;BME280;10722;51.910;8.352;2023-10-09T02:16:20;101162.09;;;12.89;100.00
21129;BME280;10722;51.910;8.352;2023-10-09T02:19:05;101145.69;;;12.90;100.00
21129;BME280;10722;51.910;8.352;2023-10-09T02:21:50;101144.72;;;12.84;100.00
21129;BME280;10722;51.910;8.352;2023-10-09T02:24:35;101143.09;;;12.90;100.00
21129;BME280;10722;51.910;8.352;2023-10-09T02:27:21;101143.22;;;12.98;100.00
21129;BME280;10722;51.910;8.352;2023-10-09T02:30:07;101137.91;;;12.92;100.00
21129;BME280;10722;51.910;8.352;2023-10-09T02:32:53;101139.75;;;13.00;100.00
21129;BME280;10722;51.910;8.352;2023-10-09T02:35:40;101138.16;;;13.09;100.00
21129;BME280;10722;51.910;8.352;2023-10-09T02:38:25;101131.63;;;13.35;100.00
21129;BME280;10722;51.910;8.352;2023-10-09T02:41:10;101130.69;;;13.30;100.00
21129;BME280;10722;51.910;8.352;2023-10-09T02:43:56;101116.88;;;13.34;100.00
21129;BME280;10722;51.910;8.352;2023-10-09T02:46:41;101108.09;;;13.26;100.00
21129;BME280;10722;51.910;8.352;2023-10-09T02:49:26;101108.09;;;13.26;100.00
21129;BME280;10722;51.910;8.352;2023-10-09T02:52:11;101107.56;;;13.53;100.00
21129;BME280;10722;51.910;8.352;2023-10-09T02:54:56;101110.06;;;13.45;100.00
21129;BME280;10722;51.910;8.352;2023-10-09T02:57:41;101097.03;;;13.42;100.00
21129;BME280;10722;51.910;8.352;2023-10-09T03:00:26;101102.91;;;13.26;100.00
21129;BME280;10722;51.910;8.352;2023-10-09T03:03:11;101104.44;;;13.15;100.00
21129;BME280;10722;51.910;8.352;2023-10-09T03:05:56;101105.44;;;13.23;100.00
21129;BME280;10722;51.910;8.352;2023-10-09T03:08:42;101095.78;;;13.14;100.00
21129;BME280;10722;51.910;8.352;2023-10-09T03:11:26;101098.34;;;13.11;100.00
21129;BME280;10722;51.910;8.352;2023-10-09T03:14:12;101100.16;;;13.15;100.00
21129;BME280;10722;51.910;8.352;2023-10-09T03:16:58;101097.56;;;13.17;100.00
21129;BME280;10722;51.910;8.352;2023-10-09T03:19:43;101093.25;;;13.19;100.00
21129;BME280;10722;51.910;8.352;2023-10-09T03:22:29;101086.28;;;13.15;100.00
21129;BME280;10722;51.910;8.352;2023-10-09T03:25:13;101087.34;;;13.28;100.00
21129;BME280;10722;51.910;8.352;2023-10-09T03:27:59;101087.28;;;13.24;100.00
21129;BME280;10722;51.910;8.352;2023-10-09T03:30:44;101089.19;;;13.36;100.00
21129;BME280;10722;51.910;8.352;2023-10-09T03:33:30;101088.31;;;13.37;100.00
21129;BME280;10722;51.910;8.352;2023-10-09T03:36:15;101089.28;;;13.45;100.00
21129;BME280;10722;51.910;8.352;2023-10-09T03:39:00;101081.44;;;13.42;100.00
21129;BME280;10722;51.910;8.352;2023-10-09T03:41:45;101075.47;;;13.50;100.00
21129;BME280;10722;51.910;8.352;2023-10-09T03:44:33;101068.72;;;13.67;100.00
21129;BME280;10722;51.910;8.352;2023-10-09T03:47:19;101064.44;;;13.74;100.00
21129;BME280;10722;51.910;8.352;2023-10-09T03:50:05;101061.81;;;13.71;100.00
21129;BME280;10722;51.910;8.352;2023-10-09T03:52:50;101055.81;;;13.76;100.00
21129;BME280;10722;51.910;8.352;2023-10-09T03:55:39;101060.97;;;13.68;100.00
21129;BME280;10722;51.910;8.352;2023-10-09T03:58:24;101060.22;;;13.83;100.00
21129;BME280;10722;51.910;8.352;2023-10-09T04:01:10;101053.31;;;13.85;100.00
21129;BME280;10722;51.910;8.352;2023-10-09T04:03:57;101036.66;;;13.68;100.00
21129;BME280;10722;51.910;8.352;2023-10-09T04:06:43;101037.53;;;13.67;100.00
21129;BME280;10722;51.910;8.352;2023-10-09T04:09:28;101035.78;;;13.63;100.00
21129;BME280;10722;51.910;8.352;2023-10-09T04:12:13;101035.72;;;13.58;100.00
21129;BME280;10722;51.910;8.352;2023-10-09T04:14:58;101035.88;;;13.77;100.00
21129;BME280;10722;51.910;8.352;2023-10-09T04:17:44;101027.34;;;13.92;100.00
21129;BME280;10722;51.910;8.352;2023-10-09T04:20:29;101043.00;;;13.95;100.00
21129;BME280;10722;51.910;8.352;2023-10-09T04:23:14;101034.38;;;14.03;100.00
21129;BME280;10722;51.910;8.352;2023-10-09T04:25:59;101043.94;;;14.03;100.00
21129;BME280;10722;51.910;8.352;2023-10-09T04:28:44;101044.91;;;14.14;100.00
21129;BME280;10722;51.910;8.352;2023-10-09T04:31:29;101051.91;;;14.26;100.00
21129;BME280;10722;51.910;8.352;2023-10-09T04:34:15;101047.59;;;14.29;100.00
21129;BME280;10722;51.910;8.352;2023-10-09T04:37:00;101044.94;;;14.23;100.00
21129;BME280;10722;51.910;8.352;2023-10-09T04:39:46;101051.81;;;14.15;100.00
21129;BME280;10722;51.910;8.352;2023-10-09T04:42:31;101049.25;;;14.17;100.00
21129;BME280;10722;51.910;8.352;2023-10-09T04:45:16;101050.97;;;14.18;100.00
21129;BME280;10722;51.910;8.352;2023-10-09T04:48:02;101041.44;;;14.18;100.00
21129;BME280;10722;51.910;8.352;2023-10-09T04:50:49;101040.66;;;14.28;100.00
21129;BME280;10722;51.910;8.352;2023-10-09T04:53:35;101026.81;;;14.34;100.00
21129;BME280;10722;51.910;8.352;2023-10-09T04:56:20;101029.44;;;14.39;100.00
21129;BME280;10722;51.910;8.352;2023-10-09T04:59:05;101027.75;;;14.47;100.00
21129;BME280;10722;51.910;8.352;2023-10-09T05:01:50;101025.16;;;14.50;100.00
21129;BME280;10722;51.910;8.352;2023-10-09T05:04:36;101028.72;;;14.55;100.00
21129;BME280;10722;51.910;8.352;2023-10-09T05:07:21;101044.38;;;14.63;100.00
21129;BME280;10722;51.910;8.352;2023-10-09T05:10:07;101048.78;;;14.74;100.00
21129;BME280;10722;51.910;8.352;2023-10-09T05:12:52;101050.56;;;14.78;100.00
21129;BME280;10722;51.910;8.352;2023-10-09T05:15:38;101053.16;;;14.80;100.00
21129;BME280;10722;51.910;8.352;2023-10-09T05:18:23;101054.94;;;14.87;100.00
21129;BME280;10722;51.910;8.352;2023-10-09T05:21:08;101052.34;;;14.92;100.00
21129;BME280;10722;51.910;8.352;2023-10-09T05:23:53;101059.31;;;14.93;100.00
21129;BME280;10722;51.910;8.352;2023-10-09T05:29:27;101073.25;;;14.98;100.00
21129;BME280;10722;51.910;8.352;2023-10-09T05:32:12;101054.16;;;15.05;100.00
21129;BME280;10722;51.910;8.352;2023-10-09T05:34:57;101043.75;;;15.08;100.00
21129;BME280;10722;51.910;8.352;2023-10-09T05:37:42;101054.13;;;14.99;100.00
21129;BME280;10722;51.910;8.352;2023-10-09T05:40:27;101063.63;;;14.88;100.00
21129;BME280;10722;51.910;8.352;2023-10-09T05:43:12;101058.56;;;15.15;100.00
21129;BME280;10722;51.910;8.352;2023-10-09T05:45:57;101062.00;;;15.10;100.00
21129;BME280;10722;51.910;8.352;2023-10-09T05:48:43;101070.72;;;15.16;100.00
21129;BME280;10722;51.910;8.352;2023-10-09T05:51:28;101081.13;;;15.16;100.00
21129;BME280;10722;51.910;8.352;2023-10-09T05:54:13;101079.41;;;15.20;100.00
21129;BME280;10722;51.910;8.352;2023-10-09T05:56:58;101076.78;;;15.14;100.00
21129;BME280;10722;51.910;8.352;2023-10-09T05:59:43;101076.72;;;15.03;100.00
21129;BME280;10722;51.910;8.352;2023-10-09T06:02:28;101086.28;;;15.01;100.00
21129;BME280;10722;51.910;8.352;2023-10-09T06:05:13;101084.53;;;14.95;100.00
21129;BME280;10722;51.910;8.352;2023-10-09T06:07:58;101073.25;;;15.01;100.00
21129;BME280;10722;51.910;8.352;2023-10-09T06:10:44;101094.94;;;14.92;100.00
21129;BME280;10722;51.910;8.352;2023-10-09T06:13:29;101100.97;;;14.88;100.00
21129;BME280;10722;51.910;8.352;2023-10-09T06:16:14;101094.03;;;14.92;100.00
21129;BME280;10722;51.910;8.352;2023-10-09T06:19:00;101095.75;;;14.88;100.00
21129;BME280;10722;51.910;8.352;2023-10-09T06:21:46;101099.22;;;14.86;100.00
21129;BME280;10722;51.910;8.352;2023-10-09T06:24:31;101103.56;;;14.88;100.00
21129;BME280;10722;51.910;8.352;2023-10-09T06:27:16;101098.44;;;14.99;100.00
21129;BME280;10722;51.910;8.352;2023-10-09T06:30:02;101099.19;;;14.79;100.00
21129;BME280;10722;51.910;8.352;2023-10-09T06:32:47;101110.41;;;14.72;100.00
21129;BME280;10722;51.910;8.352;2023-10-09T06:35:36;101121.66;;;14.65;100.00
21129;BME280;10722;51.910;8.352;2023-10-09T06:38:21;101123.34;;;14.60;100.00
21129;BME280;10722;51.910;8.352;2023-10-09T06:41:06;101143.41;;;14.75;100.00
21129;BME280;10722;51.910;8.352;2023-10-09T06:43:51;101152.19;;;14.85;100.00
21129;BME280;10722;51.910;8.352;2023-10-09T06:46:37;101137.47;;;14.94;100.00
21129;BME280;10722;51.910;8.352;2023-10-09T06:49:22;101144.34;;;14.83;100.00
21129;BME280;10722;51.910;8.352;2023-10-09T06:52:07;101129.63;;;14.87;100.00
21129;BME280;10722;51.910;8.352;2023-10-09T06:54:53;101130.50;;;14.92;100.00
21129;BME280;10722;51.910;8.352;2023-10-09T06:57:38;101137.50;;;14.99;100.00
21129;BME280;10722;51.910;8.352;2023-10-09T07:00:23;101141.03;;;15.12;100.00
21129;BME280;10722;51.910;8.352;2023-10-09T07:03:09;101134.13;;;15.12;100.00
21129;BME280;10722;51.910;8.352;2023-10-09T07:06:03;101132.41;;;15.22;100.00
21129;BME280;10722;51.910;8.352;2023-10-09T07:08:48;101123.72;;;15.21;100.00
21129;BME280;10722;51.910;8.352;2023-10-09T07:14:22;101122.00;;;15.25;100.00
21129;BME280;10722;51.910;8.352;2023-10-09T07:17:08;101119.41;;;15.28;100.00
21129;BME280;10722;51.910;8.352;2023-10-09T07:19:54;101113.34;;;15.29;100.00
21129;BME280;10722;51.910;8.352;2023-10-09T07:22:40;101123.78;;;15.32;100.00
21129;BME280;10722;51.910;8.352;2023-10-09T07:25:25;101109.88;;;15.32;100.00
21129;BME280;10722;51.910;8.352;2023-10-09T07:28:11;101096.84;;;15.30;100.00
21129;BME280;10722;51.910;8.352;2023-10-09T07:30:56;101111.59;;;15.31;100.00
21129;BME280;10722;51.910;8.352;2023-10-09T07:33:41;101132.47;;;15.36;100.00
21129;BME280;10722;51.910;8.352;2023-10-09T07:36:26;101155.09;;;15.40;100.00
21129;BME280;10722;51.910;8.352;2023-10-09T07:39:11;101146.44;;;15.47;100.00
21129;BME280;10722;51.910;8.352;2023-10-09T07:41:56;101149.03;;;15.47;100.00
21129;BME280;10722;51.910;8.352;2023-10-09T07:44:42;101157.75;;;15.46;100.00
21129;BME280;10722;51.910;8.352;2023-10-09T07:47:27;101141.22;;;15.44;100.00
21129;BME280;10722;51.910;8.352;2023-10-09T07:50:12;101144.69;;;15.43;100.00
21129;BME280;10722;51.910;8.352;2023-10-09T07:52:57;101123.78;;;15.37;100.00
21129;BME280;10722;51.910;8.352;2023-10-09T07:55:42;101097.75;;;15.51;100.00
21129;BME280;10722;51.910;8.352;2023-10-09T07:58:28;101100.38;;;15.46;100.00
21129;BME280;10722;51.910;8.352;2023-10-09T08:01:14;101129.06;;;15.49;100.00
21129;BME280;10722;51.910;8.352;2023-10-09T08:03:59;101135.19;;;15.59;100.00
21129;BME280;10722;51.910;8.352;2023-10-09T08:06:45;101121.28;;;15.61;100.00
21129;BME280;10722;51.910;8.352;2023-10-09T08:09:50;101125.63;;;15.62;100.00
21129;BME280;10722;51.910;8.352;2023-10-09T08:12:35;101124.78;;;15.66;100.00
21129;BME280;10722;51.910;8.352;2023-10-09T08:15:20;101122.16;;;15.63;100.00
21129;BME280;10722;51.910;8.352;2023-10-09T08:18:07;101122.16;;;15.66;100.00
21129;BME280;10722;51.910;8.352;2023-10-09T08:20:54;101121.34;;;15.71;100.00
21129;BME280;10722;51.910;8.352;2023-10-09T08:23:39;101129.16;;;15.74;100.00
21129;BME280;10722;51.910;8.352;2023-10-09T08:26:25;101126.56;;;15.77;100.00
21129;BME280;10722;51.910;8.352;2023-10-09T08:29:10;101130.06;;;15.74;100.00
21129;BME280;10722;51.910;8.352;2023-10-09T08:31:55;101131.78;;;15.75;100.00
21129;BME280;10722;51.910;8.352;2023-10-09T08:34:42;101130.91;;;15.75;100.00
21129;BME280;10722;51.910;8.352;2023-10-09T08:37:30;101130.06;;;15.82;100.00
21129;BME280;10722;51.910;8.352;2023-10-09T08:40:16;101133.53;;;15.75;100.00
21129;BME280;10722;51.910;8.352;2023-10-09T08:43:08;101128.31;;;15.75;100.00
21129;BME280;10722;51.910;8.352;2023-10-09T08:45:54;101119.59;;;15.76;100.00
21129;BME280;10722;51.910;8.352;2023-10-09T08:48:41;101128.31;;;15.78;100.00
21129;BME280;10722;51.910;8.352;2023-10-09T08:51:27;101117.88;;;15.78;100.00
21129;BME280;10722;51.910;8.352;2023-10-09T08:54:12;101122.25;;;15.77;100.00
21129;BME280;10722;51.910;8.352;2023-10-09T08:56:58;101129.19;;;15.80;100.00
21129;BME280;10722;51.910;8.352;2023-10-09T08:59:43;101124.00;;;15.80;100.00
21129;BME280;10722;51.910;8.352;2023-10-09T09:02:32;101129.22;;;15.83;100.00
21129;BME280;10722;51.910;8.352;2023-10-09T09:05:18;101130.06;;;15.83;100.00
21129;BME280;10722;51.910;8.352;2023-10-09T09:08:03;101137.00;;;15.81;100.00
21129;BME280;10722;51.910;8.352;2023-10-09T09:11:00;101135.31;;;15.91;100.00
21129;BME280;10722;51.910;8.352;2023-10-09T09:16:43;101128.38;;;16.01;100.00
21129;BME280;10722;51.910;8.352;2023-10-09T09:19:31;101122.28;;;15.94;100.00
21129;BME280;10722;51.910;8.352;2023-10-09T09:22:16;101110.06;;;15.96;100.00
21129;BME280;10722;51.910;8.352;2023-10-09T09:25:02;101120.53;;;16.07;100.00
21129;BME280;10722;51.910;8.352;2023-10-09T09:27:47;101117.06;;;16.09;100.00
21129;BME280;10722;51.910;8.352;2023-10-09T09:30:32;101105.75;;;16.21;100.00
21129;BME280;10722;51.910;8.352;2023-10-09T09:33:24;101100.53;;;16.29;100.00
21129;BME280;10722;51.910;8.352;2023-10-09T09:36:10;101091.84;;;16.24;100.00
21129;BME280;10722;51.910;8.352;2023-10-09T09:38:57;101087.47;;;16.24;100.00
21129;BME280;10722;51.910;8.352;2023-10-09T09:41:44;101084.88;;;16.21;100.00
21129;BME280;10722;51.910;8.352;2023-10-09T09:44:34;101072.69;;;16.26;100.00
21129;BME280;10722;51.910;8.352;2023-10-09T09:47:19;101064.84;;;16.29;100.00
21129;BME280;10722;51.910;8.352;2023-10-09T09:50:05;101046.56;;;16.32;100.00
21129;BME280;10722;51.910;8.352;2023-10-09T09:52:51;101044.88;;;16.19;100.00
21129;BME280;10722;51.910;8.352;2023-10-09T09:55:38;101068.34;;;16.28;100.00
21129;BME280;10722;51.910;8.352;2023-10-09T09:58:27;101075.31;;;16.31;100.00
21129;BME280;10722;51.910;8.352;2023-10-09T10:01:13;101084.88;;;16.33;100.00
21129;BME280;10722;51.910;8.352;2023-10-09T10:04:03;101075.28;;;16.40;100.00
21129;BME280;10722;51.910;8.352;2023-10-09T10:06:50;101073.56;;;16.45;100.00
21129;BME280;10722;51.910;8.352;2023-10-09T10:09:40;101072.69;;;16.26;100.00
21129;BME280;10722;51.910;8.352;2023-10-09T10:16:04;101077.91;;;16.31;100.00
21129;BME280;10722;51.910;8.352;2023-10-09T10:21:42;101065.72;;;16.34;100.00
21129;BME280;10722;51.910;8.352;2023-10-09T10:32:59;101084.88;;;16.47;100.00
21129;BME280;10722;51.910;8.352;2023-10-09T10:35:45;101083.13;;;16.48;100.00
21129;BME280;10722;51.910;8.352;2023-10-09T10:38:32;101084.00;;;16.51;100.00
21129;BME280;10722;51.910;8.352;2023-10-09T10:41:20;101084.88;;;16.41;100.00
21129;BME280;10722;51.910;8.352;2023-10-09T10:44:06;101094.44;;;16.50;100.00
21129;BME280;10722;51.910;8.352;2023-10-09T10:46:51;101096.19;;;16.42;100.00
21129;BME280;10722;51.910;8.352;2023-10-09T10:49:37;101098.78;;;16.58;100.00
21129;BME280;10722;51.910;8.352;2023-10-09T10:52:23;101091.81;;;16.62;100.00
21129;BME280;10722;51.910;8.352;2023-10-09T10:55:12;101097.03;;;16.61;100.00
21129;BME280;10722;51.910;8.352;2023-10-09T10:57:58;101080.47;;;16.71;100.00
21129;BME280;10722;51.910;8.352;2023-10-09T11:00:43;101097.88;;;16.69;100.00
21129;BME280;10722;51.910;8.352;2023-10-09T11:03:28;101093.53;;;16.83;100.00
21129;BME280;10722;51.910;8.352;2023-10-09T11:06:30;101113.56;;;16.90;100.00
21129;BME280;10722;51.910;8.352;2023-10-09T11:09:15;101120.53;;;16.88;100.00
21129;BME280;10722;51.910;8.352;2023-10-09T11:12:05;101128.34;;;16.97;100.00
21129;BME280;10722;51.910;8.352;2023-10-09T11:14:50;101149.25;;;17.00;100.00
21129;BME280;10722;51.910;8.352;2023-10-09T11:17:35;101153.63;;;17.05;100.00
21129;BME280;10722;51.910;8.352;2023-10-09T11:20:22;101146.66;;;17.03;100.00
21129;BME280;10722;51.910;8.352;2023-10-09T11:23:07;101129.22;;;17.01;100.00
21129;BME280;10722;51.910;8.352;2023-10-09T11:25:53;101120.53;;;16.99;100.00
21129;BME280;10722;51.910;8.352;2023-10-09T11:28:38;101118.75;;;17.02;100.00
21129;BME280;10722;51.910;8.352;2023-10-09T11:31:24;101110.06;;;17.02;100.00
21129;BME280;10722;51.910;8.352;2023-10-09T11:34:19;101108.31;;;17.02;100.00
21129;BME280;10722;51.910;8.352;2023-10-09T11:39:53;101112.63;;;17.13;100.00
21129;BME280;10722;51.910;8.352;2023-10-09T11:42:43;101116.06;;;17.22;100.00
21129;BME280;10722;51.910;8.352;2023-10-09T11:45:28;101112.66;;;17.08;100.00
21129;BME280;10722;51.910;8.352;2023-10-09T11:48:18;101121.34;;;17.12;100.00
21129;BME280;10722;51.910;8.352;2023-10-09T11:51:03;101127.47;;;17.05;100.00
21129;BME280;10722;51.910;8.352;2023-10-09T11:53:48;101125.72;;;17.00;100.00
21129;BME280;10722;51.910;8.352;2023-10-09T11:56:33;101128.34;;;16.99;100.00
21129;BME280;10722;51.910;8.352;2023-10-09T11:59:18;101123.13;;;16.99;100.00
21129;BME280;10722;51.910;8.352;2023-10-09T12:02:04;101121.38;;;16.95;100.00
21129;BME280;10722;51.910;8.352;2023-10-09T12:04:50;101117.84;;;17.11;100.00
21129;BME280;10722;51.910;8.352;2023-10-09T12:07:35;101120.50;;;17.00;100.00
21129;BME280;10722;51.910;8.352;2023-10-09T12:10:21;101127.50;;;16.95;100.00
21129;BME280;10722;51.910;8.352;2023-10-09T12:13:07;101117.88;;;17.05;100.00
21129;BME280;10722;51.910;8.352;2023-10-09T12:15:53;101114.44;;;16.98;100.00
21129;BME280;10722;51.910;8.352;2023-10-09T12:18:38;101107.41;;;17.10;100.00
21129;BME280;10722;51.910;8.352;2023-10-09T12:21:23;101097.84;;;16.99;100.00
21129;BME280;10722;51.910;8.352;2023-10-09T12:24:09;101098.78;;;16.85;100.00
21129;BME280;10722;51.910;8.352;2023-10-09T12:26:55;101100.50;;;16.90;100.00
21129;BME280;10722;51.910;8.352;2023-10-09T12:29:40;101085.69;;;16.92;100.00
21129;BME280;10722;51.910;8.352;2023-10-09T12:32:25;101097.84;;;16.99;100.00
21129;BME280;10722;51.910;8.352;2023-10-09T12:35:11;101097.00;;;17.03;100.00
21129;BME280;10722;51.910;8.352;2023-10-09T12:37:56;101097.00;;;16.99;100.00
21129;BME280;10722;51.910;8.352;2023-10-09T12:40:41;101104.81;;;16.97;100.00
21129;BME280;10722;51.910;8.352;2023-10-09T12:43:28;101098.75;;;16.83;100.00
21129;BME280;10722;51.910;8.352;2023-10-09T12:46:14;101101.38;;;16.86;100.00
21129;BME280;10722;51.910;8.352;2023-10-09T12:48:59;101097.03;;;16.90;100.00
21129;BME280;10722;51.910;8.352;2023-10-09T12:51:44;101096.97;;;17.02;100.00
21129;BME280;10722;51.910;8.352;2023-10-09T12:54:29;101102.22;;;16.96;100.00
21129;BME280;10722;51.910;8.352;2023-10-09T12:57:15;101088.25;;;17.08;100.00
21129;BME280;10722;51.910;8.352;2023-10-09T13:00:01;101078.69;;;17.03;100.00
21129;BME280;10722;51.910;8.352;2023-10-09T13:02:46;101093.41;;;17.23;100.00
21129;BME280;10722;51.910;8.352;2023-10-09T13:05:32;101089.09;;;17.19;100.00
21129;BME280;10722;51.910;8.352;2023-10-09T13:08:26;101102.13;;;17.27;100.00
21129;BME280;10722;51.910;8.352;2023-10-09T13:11:11;101097.78;;;17.21;100.00
21129;BME280;10722;51.910;8.352;2023-10-09T13:13:57;101108.19;;;17.33;100.00
21129;BME280;10722;51.910;8.352;2023-10-09T13:16:43;101104.72;;;17.28;100.00
21129;BME280;10722;51.910;8.352;2023-10-09T13:19:28;101096.94;;;17.19;100.00
21129;BME280;10722;51.910;8.352;2023-10-09T13:22:13;101099.53;;;17.22;100.00
21129;BME280;10722;51.910;8.352;2023-10-09T13:24:59;101089.91;;;17.25;100.00
21129;BME280;10722;51.910;8.352;2023-10-09T13:27:44;101098.63;;;17.29;100.00
21129;BME280;10722;51.910;8.352;2023-10-09T13:30:29;101095.97;;;17.38;100.00
21129;BME280;10722;51.910;8.352;2023-10-09T13:33:14;101098.56;;;17.40;100.00
21129;BME280;10722;51.910;8.352;2023-10-09T13:36:00;101085.53;;;17.35;100.00
21129;BME280;10722;51.910;8.352;2023-10-09T13:38:45;101079.44;;;17.33;100.00
21129;BME280;10722;51.910;8.352;2023-10-09T13:41:31;101087.22;;;17.42;100.00
21129;BME280;10722;51.910;8.352;2023-10-09T13:44:17;101084.63;;;17.44;100.00
21129;BME280;10722;51.910;8.352;2023-10-09T13:47:04;101082.91;;;17.35;100.00
21129;BME280;10722;51.910;8.352;2023-10-09T13:49:49;101080.31;;;17.32;100.00
21129;BME280;10722;51.910;8.352;2023-10-09T13:52:35;101085.50;;;17.37;100.00
21129;BME280;10722;51.910;8.352;2023-10-09T13:55:20;101089.00;;;17.39;100.00
21129;BME280;10722;51.910;8.352;2023-10-09T13:58:05;101087.25;;;17.39;100.00
21129;BME280;10722;51.910;8.352;2023-10-09T14:00:50;101092.44;;;17.45;100.00
21129;BME280;10722;51.910;8.352;2023-10-09T14:03:35;101098.56;;;17.41;100.00
21129;BME280;10722;51.910;8.352;2023-10-09T14:06:21;101096.84;;;17.40;100.00
21129;BME280;10722;51.910;8.352;2023-10-09T14:09:06;101087.16;;;17.58;100.00
21129;BME280;10722;51.910;8.352;2023-10-09T14:11:51;101088.91;;;17.56;100.00
21129;BME280;10722;51.910;8.352;2023-10-09T14:14:41;101087.13;;;17.59;100.00
21129;BME280;10722;51.910;8.352;2023-10-09T14:17:26;101088.84;;;17.66;100.00
21129;BME280;10722;51.910;8.352;2023-10-09T14:20:12;101091.47;;;17.62;100.00
21129;BME280;10722;51.910;8.352;2023-10-09T14:23:01;101092.34;;;17.67;100.00
21129;BME280;10722;51.910;8.352;2023-10-09T14:25:46;101093.19;;;17.72;100.00
21129;BME280;10722;51.910;8.352;2023-10-09T14:28:31;101086.22;;;17.71;100.00
21129;BME280;10722;51.910;8.352;2023-10-09T14:31:17;101097.53;;;17.70;100.00
21129;BME280;10722;51.910;8.352;2023-10-09T14:34:02;101095.78;;;17.72;100.00
21129;BME280;10722;51.910;8.352;2023-10-09T14:36:47;101092.25;;;17.76;100.00
21129;BME280;10722;51.910;8.352;2023-10-09T14:39:32;101086.19;;;17.74;100.00
21129;BME280;10722;51.910;8.352;2023-10-09T14:42:17;101094.94;;;17.67;100.00